ミラノ・マルペンサ国際空港の過去48時間の天気

ミラノ・マルペンサ国際空港 (Milano / Malpensa)

現在時刻: 1/18 11:28 CET (1/18 10:28 UTC) 以下の時間は現地時間です。

過去48時間のMETAR気象情報
時間 風向 風速(m/s) 視程 気温(℃) 湿度(%) 気圧(hPa) 天気現象
18 10:50 不定 1 200m 4 100 1024
18 10:20 不定 1 100m 4 100 1023
18 09:50 不定 1 50m 4 100 1023
18 09:20 西北西 2 100m 4 100 1023
18 08:50 西 2 100m 4 100 1023
18 08:20 西 3 600m 4 100 1023
18 07:50 南西 2 2500m 4 100 1023 散在した霧 もや
18 07:20 2 1000m 3 100 1023 散在した霧 もや
18 06:50 不定 1 2000m 3 100 1022 散在した霧
18 06:20 不定 1 2000m 4 100 1022 散在した霧
18 05:50 不定 1 2000m 4 100 1022 散在した霧 弱い霧雨
18 05:20 不定 1 2000m 4 100 1022 散在した霧 弱い霧雨
18 04:50 不定 1 3000m 4 100 1022 弱い霧雨 もや
18 04:20 不定 1 3500m 4 100 1022 散在した霧 弱い雨
18 03:50 2 3000m 4 100 1022 弱い雨 もや
18 03:20 東南東 2 3000m 4 100 1022 散在した霧 弱い雨
18 02:50 南西 2 4000m 5 100 1022 雨 もや
18 02:20 南南西 2 4000m 5 100 1022 雨 もや
18 01:50 不定 1 5000m 5 100 1022 雨 もや
18 01:20 北北東 2 5000m 5 100 1022 雨 もや
18 00:50 2 6000m 5 100 1022
18 00:20 2 6000m 5 93 1022
17 23:50 北北西 2 7000m 5 93 1022 弱い雨
17 23:20 南西 2 8000m 6 87 1022 弱い雨
17 22:50 西南西 2 10km以上 6 81 1022 弱い霧雨
17 22:20 南西 3 10km以上 6 81 1022 弱い霧雨
17 21:50 南南西 3 10km以上 6 76 1022
17 21:20 2 10km以上 7 70 1022
17 20:50 北北東 2 10km以上 7 70 1021
17 20:20 北北東 3 10km以上 7 70 1022
17 19:50 3 10km以上 5 81 1022
17 19:20 北北東 3 10km以上 5 81 1022
17 18:50 3 10km以上 3 87 1023
17 18:20 北北東 2 10km以上 2 87 1023
17 17:50 不定 1 10km以上 5 75 1022
17 17:20 南西 2 10km以上 7 66 1023
17 16:50 南南西 2 10km以上 9 57 1023
17 16:20 西南西 2 10km以上 10 54 1023
17 15:50 西南西 3 10km以上 10 54 1023
17 15:20 不定 1 10km以上 11 54 1023
17 14:50 西南西 3 10km以上 10 58 1023
17 14:20 西南西 3 10km以上 9 62 1023
17 13:50 南西 3 10km以上 10 54 1024
17 13:20 南西 3 10km以上 10 54 1024
17 12:50 南西 2 10km以上 10 58 1024
17 12:20 不定 1 10km以上 10 58 1025
17 11:50 北北西 2 10km以上 9 62 1025
17 11:20 3 10km以上 8 71 1025
17 10:50 北北西 2 10km以上 6 81 1026
17 10:20 2 10km以上 5 93 1026
17 09:50 不定 1 10km以上 4 100 1026
17 09:20 2 10km以上 0 100 1026
17 08:50 西北西 2 10km以上 0 100 1026 地霧
17 08:20 不定 1 10km以上 -1 100 1026 地霧
17 07:50 2 10km以上 0 100 1026 地霧
17 07:20 北北東 2 10km以上 0 100 1026
17 06:50 2 10km以上 -2 100 1026
17 06:20 3 10km以上 -2 100 1026
17 05:50 3 10km以上 -2 100 1026
17 05:20 3 10km以上 -2 100 1026
17 04:50 2 7000m -3 100 1027
17 04:20 2 7000m -2 100 1027
17 03:50 3 7000m -2 100 1027 散在した霧
17 03:20 3 7000m -2 100 1028
17 02:50 北北東 3 7000m -2 100 1028 散在した霧
17 02:20 2 7000m -2 100 1028 散在した霧
17 01:50 北北東 3 7000m -2 100 1028 散在した霧
17 01:20 3 7000m -2 100 1028 散在した霧
17 00:50 北北東 2 7000m -1 100 1029 散在した霧
17 00:20 2 7000m -1 100 1029 散在した霧
16 23:50 2 7000m -2 100 1029 散在した霧
16 23:20 3 7000m -1 100 1029 散在した霧
16 22:50 2 7000m -1 100 1029 散在した霧
16 22:20 北北東 2 7000m -1 100 1030 散在した霧
16 21:50 不定 1 7000m 0 100 1030 散在した霧
16 21:20 北北東 2 7000m 1 100 1030 散在した霧
16 20:50 北北東 2 8000m -1 100 1030 散在した霧
16 20:20 北北東 2 10km以上 0 100 1030
16 19:50 北北東 2 8000m 1 93 1030
16 19:20 不定 1 6000m 2 93 1030
16 18:50 1 7000m 3 87 1030
16 18:20 不定 1 7000m 5 87 1030
16 17:50 南西 2 7000m 6 81 1030
16 17:20 西南西 3 8000m 7 76 1030
16 16:50 西南西 3 10km以上 8 76 1030
16 16:20 西南西 3 10km以上 8 71 1030
16 15:50 西南西 3 10km以上 9 66 1030
16 15:20 2 10km以上 10 62 1030
16 14:50 2 10km以上 10 62 1030
16 14:20 南南東 2 10km以上 10 58 1030
16 13:50 2 10km以上 10 58 1030
16 13:20 東南東 2 8000m 10 62 1031
16 12:50 不定 2 8000m 9 66 1031
16 12:20 不定 1 8000m 9 66 1032
16 11:50 不定 1 10km以上 8 66 1032
LIMC 180950Z VRB01KT 0200 R35R/0275N R17L/0250V1000U R35L/0650N FG VV001 04/04 Q1024 NOSIG
LIMC 180920Z VRB01KT 0100 R35R/0250N R17L/0200N R35L/0200V0325N FG VV001 04/04 Q1023 NOSIG
LIMC 180850Z VRB02KT 0050 R35R/0200N R17L/0200N R35L/0250N FG VV001 04/04 Q1023 NOSIG
LIMC 180820Z 30003KT 260V330 0100 R35R/0275N R17L/0225N R35L/0275N FG VV001 04/04 Q1023 NOSIG
LIMC 180750Z 28003KT 260V330 0100 R35R/0325D R17L/0800N R35L/0400N FG VV001 04/04 Q1023 NOSIG
LIMC 180720Z 27005KT 0600 R35R/P1500N R17L/0900U R35L/P1500N FG VV001 04/04 Q1023 NOSIG
LIMC 180650Z 22004KT 2500 1200SW R35R/1300U R17L/P1500N R35L/P1500U BCFG BR NSC 04/04 Q1023 NOSIG
LIMC 180620Z 19003KT 1000 R35R/0450D R17L/0500N R35L/0325VP1500U BCFG BR BKN020 03/03 Q1023 NOSIG
LIMC 180550Z VRB01KT 2000 R35R/0600V0900U R17L/0500V1100U R35L/P1500N BCFG OVC015 03/03 Q1022 NOSIG
LIMC 180520Z VRB01KT 2000 R35R/0400N R17L/0350V0550N R35L/P1500N BCFG OVC015 04/04 Q1022 NOSIG
LIMC 180450Z VRB01KT 2000 R35R/1000N R17L/0600D R35L/1300D BCFG -DZ OVC020 04/04 Q1022 NOSIG
LIMC 180420Z VRB01KT 2000 R35R/1300N R17L/0500V0900D R35L/P1500N BCFG -DZ BKN020 04/04 Q1022 NOSIG
LIMC 180350Z VRB02KT 3000 -DZ BR BKN020 04/04 Q1022 NOSIG
LIMC 180320Z VRB02KT 3500 R35R/1100N R17L/1000VP1500N R35L/P1500N -RA BCFG SCT015 SCT030 04/04 Q1022 NOSIG
LIMC 180250Z 01003KT 3000 -RA BR SCT015 BKN050 04/04 Q1022 RERA NOSIG
LIMC 180220Z 11003KT 3000 R35R/0900VP1500D R17L/1300U R35L/P1500N -RA BCFG SCT015 OVC050 04/04 Q1022 RERA NOSIG
LIMC 180150Z 23004KT 4000 RA BR BKN030 05/05 Q1022 NOSIG
LIMC 180120Z 21004KT 170V260 4000 RA BR BKN030 05/05 Q1022 NOSIG
LIMC 180050Z VRB01KT 5000 RA BR BKN030 05/05 Q1022 NOSIG
LIMC 180020Z 02003KT 310V050 5000 RA BR BKN030 05/05 Q1022 NOSIG
LIMC 172350Z 36004KT 6000 RA BKN040 05/05 Q1022 NOSIG
LIMC 172320Z 01003KT 320V040 6000 RA BKN040 05/04 Q1022 NOSIG
LIMC 172250Z 33003KT 270V360 7000 -RA BKN050 05/04 Q1022 NOSIG
LIMC 172220Z 23004KT 180V280 8000 -RA BKN040 06/04 Q1022 NOSIG
LIMC 172150Z 24004KT 210V280 9999 -DZ BKN060 06/03 Q1022 NOSIG
LIMC 172120Z 22006KT 9999 -DZ BKN060 06/03 Q1022 NOSIG
LIMC 172050Z 20005KT 9999 BKN070 06/02 Q1022 NOSIG
LIMC 172020Z 09003KT 360V160 9999 BKN060 07/02 Q1022 NOSIG
LIMC 171950Z 02004KT 9999 BKN085 07/02 Q1021 NOSIG
LIMC 171920Z 02005KT 340V040 9999 BKN080 07/02 Q1022 NOSIG
LIMC 171850Z 01005KT 9999 BKN090 05/02 Q1022 NOSIG
LIMC 171820Z 02006KT 9999 BKN080 05/02 Q1022 NOSIG
LIMC 171750Z 01005KT CAVOK 03/01 Q1023 NOSIG
LIMC 171720Z 02003KT CAVOK 02/M00 Q1023 NOSIG
LIMC 171650Z VRB01KT CAVOK 05/01 Q1022 NOSIG
LIMC 171620Z 23003KT CAVOK 07/01 Q1023 NOSIG
LIMC 171550Z 21003KT CAVOK 09/01 Q1023 NOSIG
LIMC 171520Z 25003KT 230V290 CAVOK 10/01 Q1023 NOSIG
LIMC 171450Z 24005KT CAVOK 10/01 Q1023 NOSIG
LIMC 171420Z VRB02KT CAVOK 11/02 Q1023 NOSIG
LIMC 171350Z 25005KT CAVOK 10/02 Q1023 NOSIG
LIMC 171320Z 25006KT CAVOK 09/02 Q1023 NOSIG
LIMC 171250Z 23005KT CAVOK 10/01 Q1024 NOSIG
LIMC 171220Z 23005KT 200V260 CAVOK 10/01 Q1024 NOSIG
LIMC 171150Z 22004KT 200V260 CAVOK 10/02 Q1024 NOSIG
LIMC 171120Z VRB02KT CAVOK 10/02 Q1025 NOSIG
LIMC 171050Z 34003KT 300V360 CAVOK 09/02 Q1025 NOSIG
LIMC 171020Z 36005KT 320V030 CAVOK 08/03 Q1025 NOSIG
LIMC 170950Z 34003KT 320V020 CAVOK 06/03 Q1026 NOSIG
LIMC 170920Z 35003KT CAVOK 05/04 Q1026 NOSIG
LIMC 170850Z VRB02KT CAVOK 04/04 Q1026 NOSIG
LIMC 170820Z 35003KT CAVOK 00/00 Q1026 NOSIG
LIMC 170750Z 30003KT 280V360 9999 MIFG NSC M00/M00 Q1026 NOSIG
LIMC 170720Z VRB02KT 9999 MIFG NSC M01/M01 Q1026 NOSIG
LIMC 170650Z 35003KT 9999 MIFG NSC M00/M00 Q1026 NOSIG
LIMC 170620Z 02004KT CAVOK M00/M00 Q1026 NOSIG
LIMC 170550Z 35003KT 310V010 CAVOK M02/M02 Q1026 NOSIG
LIMC 170520Z 01006KT CAVOK M02/M02 Q1026 NOSIG
LIMC 170450Z 36005KT CAVOK M02/M02 Q1026 NOSIG
LIMC 170420Z 36005KT CAVOK M02/M02 Q1026 NOSIG
LIMC 170350Z 01004KT 7000 NSC M03/M03 Q1027 NOSIG
LIMC 170320Z 35004KT 7000 NSC M02/M02 Q1027 NOSIG
LIMC 170250Z 01005KT 7000 R35R/1400D R17L/P1500N R35L/P1500N BCFG NSC M02/M02 Q1027 NOSIG
LIMC 170220Z 36005KT 7000 NSC M02/M02 Q1028 NOSIG
LIMC 170150Z 02006KT 7000 BCFG NSC M02/M02 Q1028 NOSIG
LIMC 170120Z 01003KT 340V100 7000 BCFG NSC M02/M02 Q1028 NOSIG
LIMC 170050Z 02005KT 7000 BCFG NSC M02/M02 Q1028 NOSIG
LIMC 170020Z 01005KT 7000 BCFG NSC M02/M02 Q1028 NOSIG
LIMC 162350Z 02004KT 7000 BCFG NSC M01/M01 Q1029 NOSIG
LIMC 162320Z 01004KT 7000 R35R/1400D R17L/P1500N R35L/P1500N BCFG NSC M01/M01 Q1029 NOSIG
LIMC 162250Z 01004KT 7000 BCFG NSC M02/M02 Q1029 NOSIG
LIMC 162220Z 36005KT 7000 BCFG NSC M01/M01 Q1029 NOSIG
LIMC 162150Z 01004KT 7000 R35R/1400U R17L/P1500N R35L/P1500N BCFG NSC M01/M01 Q1029 NOSIG
LIMC 162120Z 03003KT 010V070 7000 R35R/1400N R17L/P1500N R35L/P1500N BCFG NSC M01/M01 Q1030 NOSIG
LIMC 162050Z VRB02KT 7000 R35R/1400U R17L/1400N R35L/P1500N BCFG NSC 00/00 Q1030 NOSIG
LIMC 162020Z 02003KT 7000 BCFG NSC 01/01 Q1030 NOSIG
LIMC 161950Z 02004KT 8000 BCFG NSC M01/M01 Q1030 NOSIG
LIMC 161920Z 03003KT CAVOK 00/00 Q1030 NOSIG
LIMC 161850Z 02003KT 8000 NSC 01/00 Q1030 NOSIG
LIMC 161820Z VRB02KT 6000 NSC 02/01 Q1030 NOSIG
LIMC 161750Z 01001KT 7000 NSC 03/01 Q1030 NOSIG
LIMC 161720Z VRB02KT 7000 NSC 05/03 Q1030 NOSIG
LIMC 161650Z 23004KT 7000 NSC 06/03 Q1030 NOSIG
LIMC 161620Z 25005KT 8000 NSC 07/03 Q1030 NOSIG
LIMC 161550Z 24006KT CAVOK 08/04 Q1030 NOSIG
LIMC 161520Z 25006KT CAVOK 08/03 Q1030 NOSIG
LIMC 161450Z 24005KT 200V270 CAVOK 09/03 Q1030 NOSIG
LIMC 161420Z 18003KT 150V210 CAVOK 10/03 Q1030 NOSIG
LIMC 161350Z 17003KT 130V210 CAVOK 10/03 Q1030 NOSIG
LIMC 161320Z 16004KT 130V220 CAVOK 10/02 Q1030 NOSIG
LIMC 161250Z 17004KT 140V200 CAVOK 10/02 Q1030 NOSIG
LIMC 161220Z 12003KT 080V180 8000 NSC 10/03 Q1031 NOSIG
LIMC 161150Z VRB03KT 8000 NSC 09/03 Q1031 NOSIG
LIMC 161120Z VRB02KT 8000 NSC 09/03 Q1032 NOSIG
LIMC 161050Z VRB02KT CAVOK 08/02 Q1032 NOSIG